sensor_id;sensor_type;location;lat;lon;timestamp;P1;durP1;ratioP1;P2;durP2;ratioP2
22916;SDS011;11624;53.250;7.456;2023-12-22T00:00:05;29.85;;;4.25;;
22916;SDS011;11624;53.250;7.456;2023-12-22T00:02:34;21.70;;;4.05;;
22916;SDS011;11624;53.250;7.456;2023-12-22T00:05:03;29.60;;;4.60;;
22916;SDS011;11624;53.250;7.456;2023-12-22T00:07:31;20.88;;;3.75;;
22916;SDS011;11624;53.250;7.456;2023-12-22T00:10:00;24.92;;;3.13;;
22916;SDS011;11624;53.250;7.456;2023-12-22T00:12:27;23.55;;;3.33;;
22916;SDS011;11624;53.250;7.456;2023-12-22T00:14:57;23.33;;;3.88;;
22916;SDS011;11624;53.250;7.456;2023-12-22T00:17:25;21.45;;;3.13;;
22916;SDS011;11624;53.250;7.456;2023-12-22T00:19:53;19.17;;;3.20;;
22916;SDS011;11624;53.250;7.456;2023-12-22T00:22:23;23.67;;;3.42;;
22916;SDS011;11624;53.250;7.456;2023-12-22T00:24:51;28.75;;;4.25;;
22916;SDS011;11624;53.250;7.456;2023-12-22T00:27:19;17.40;;;2.88;;
22916;SDS011;11624;53.250;7.456;2023-12-22T00:29:48;14.02;;;2.20;;
22916;SDS011;11624;53.250;7.456;2023-12-22T00:32:17;13.63;;;2.17;;
22916;SDS011;11624;53.250;7.456;2023-12-22T00:34:45;11.82;;;1.80;;
22916;SDS011;11624;53.250;7.456;2023-12-22T00:37:13;8.85;;;1.55;;
22916;SDS011;11624;53.250;7.456;2023-12-22T00:39:42;10.65;;;1.95;;
22916;SDS011;11624;53.250;7.456;2023-12-22T00:42:10;7.47;;;1.50;;
22916;SDS011;11624;53.250;7.456;2023-12-22T00:44:38;11.80;;;1.70;;
22916;SDS011;11624;53.250;7.456;2023-12-22T00:47:06;12.80;;;1.88;;
22916;SDS011;11624;53.250;7.456;2023-12-22T00:49:36;15.30;;;2.15;;
22916;SDS011;11624;53.250;7.456;2023-12-22T00:52:04;7.80;;;1.80;;
22916;SDS011;11624;53.250;7.456;2023-12-22T00:54:33;15.25;;;2.20;;
22916;SDS011;11624;53.250;7.456;2023-12-22T00:57:01;19.73;;;2.53;;
22916;SDS011;11624;53.250;7.456;2023-12-22T00:59:29;20.95;;;2.38;;
22916;SDS011;11624;53.250;7.456;2023-12-22T01:01:58;8.60;;;1.95;;
22916;SDS011;11624;53.250;7.456;2023-12-22T01:04:26;12.43;;;2.45;;
22916;SDS011;11624;53.250;7.456;2023-12-22T01:06:56;16.38;;;2.42;;
22916;SDS011;11624;53.250;7.456;2023-12-22T01:09:24;14.20;;;1.92;;
22916;SDS011;11624;53.250;7.456;2023-12-22T01:11:52;12.25;;;1.75;;
22916;SDS011;11624;53.250;7.456;2023-12-22T01:14:20;13.25;;;2.55;;
22916;SDS011;11624;53.250;7.456;2023-12-22T01:16:48;12.55;;;2.25;;
22916;SDS011;11624;53.250;7.456;2023-12-22T01:19:17;15.48;;;1.88;;
22916;SDS011;11624;53.250;7.456;2023-12-22T01:21:45;22.65;;;3.17;;
22916;SDS011;11624;53.250;7.456;2023-12-22T01:24:18;16.30;;;2.15;;
22916;SDS011;11624;53.250;7.456;2023-12-22T01:26:46;12.60;;;2.25;;
22916;SDS011;11624;53.250;7.456;2023-12-22T01:29:14;16.20;;;3.03;;
22916;SDS011;11624;53.250;7.456;2023-12-22T01:31:43;20.02;;;2.65;;
22916;SDS011;11624;53.250;7.456;2023-12-22T01:34:11;21.42;;;2.95;;
22916;SDS011;11624;53.250;7.456;2023-12-22T01:36:39;22.40;;;3.83;;
22916;SDS011;11624;53.250;7.456;2023-12-22T01:39:08;21.42;;;2.97;;
22916;SDS011;11624;53.250;7.456;2023-12-22T01:41:38;27.60;;;4.28;;
22916;SDS011;11624;53.250;7.456;2023-12-22T01:44:06;18.48;;;3.40;;
22916;SDS011;11624;53.250;7.456;2023-12-22T01:46:34;18.50;;;3.72;;
22916;SDS011;11624;53.250;7.456;2023-12-22T01:49:04;17.73;;;3.05;;
22916;SDS011;11624;53.250;7.456;2023-12-22T01:51:34;17.92;;;3.45;;
22916;SDS011;11624;53.250;7.456;2023-12-22T01:54:06;19.55;;;2.70;;
22916;SDS011;11624;53.250;7.456;2023-12-22T01:56:34;20.75;;;3.35;;
22916;SDS011;11624;53.250;7.456;2023-12-22T01:59:04;22.05;;;3.33;;
22916;SDS011;11624;53.250;7.456;2023-12-22T02:01:33;22.92;;;4.07;;
22916;SDS011;11624;53.250;7.456;2023-12-22T02:04:03;30.02;;;4.65;;
22916;SDS011;11624;53.250;7.456;2023-12-22T02:06:32;25.50;;;3.92;;
22916;SDS011;11624;53.250;7.456;2023-12-22T02:09:03;24.55;;;4.25;;
22916;SDS011;11624;53.250;7.456;2023-12-22T02:11:31;21.65;;;4.22;;
22916;SDS011;11624;53.250;7.456;2023-12-22T02:13:59;22.40;;;4.15;;
22916;SDS011;11624;53.250;7.456;2023-12-22T02:16:31;23.85;;;4.53;;
22916;SDS011;11624;53.250;7.456;2023-12-22T02:19:09;17.52;;;4.18;;
22916;SDS011;11624;53.250;7.456;2023-12-22T02:24:36;26.77;;;5.65;;
22916;SDS011;11624;53.250;7.456;2023-12-22T02:27:05;34.08;;;4.20;;
22916;SDS011;11624;53.250;7.456;2023-12-22T02:29:36;32.60;;;4.55;;
22916;SDS011;11624;53.250;7.456;2023-12-22T02:32:10;20.00;;;3.70;;
22916;SDS011;11624;53.250;7.456;2023-12-22T02:34:44;20.77;;;3.53;;
22916;SDS011;11624;53.250;7.456;2023-12-22T02:37:18;19.95;;;3.33;;
22916;SDS011;11624;53.250;7.456;2023-12-22T02:39:50;15.23;;;2.80;;
22916;SDS011;11624;53.250;7.456;2023-12-22T02:42:20;21.70;;;3.22;;
22916;SDS011;11624;53.250;7.456;2023-12-22T02:44:56;26.27;;;4.80;;
22916;SDS011;11624;53.250;7.456;2023-12-22T02:47:25;21.48;;;4.20;;
22916;SDS011;11624;53.250;7.456;2023-12-22T02:49:54;23.40;;;3.67;;
22916;SDS011;11624;53.250;7.456;2023-12-22T02:52:23;19.30;;;3.83;;
22916;SDS011;11624;53.250;7.456;2023-12-22T02:54:53;25.85;;;3.50;;
22916;SDS011;11624;53.250;7.456;2023-12-22T02:57:21;16.20;;;3.65;;
22916;SDS011;11624;53.250;7.456;2023-12-22T02:59:49;18.15;;;3.20;;
22916;SDS011;11624;53.250;7.456;2023-12-22T03:02:17;25.30;;;3.58;;
22916;SDS011;11624;53.250;7.456;2023-12-22T03:04:45;19.65;;;3.83;;
22916;SDS011;11624;53.250;7.456;2023-12-22T03:07:14;26.13;;;3.88;;
22916;SDS011;11624;53.250;7.456;2023-12-22T03:09:42;21.98;;;3.38;;
22916;SDS011;11624;53.250;7.456;2023-12-22T03:12:12;20.52;;;3.17;;
22916;SDS011;11624;53.250;7.456;2023-12-22T03:14:41;19.30;;;3.05;;
22916;SDS011;11624;53.250;7.456;2023-12-22T03:17:09;15.25;;;3.22;;
22916;SDS011;11624;53.250;7.456;2023-12-22T03:19:37;18.73;;;3.42;;
22916;SDS011;11624;53.250;7.456;2023-12-22T03:22:07;22.98;;;3.42;;
22916;SDS011;11624;53.250;7.456;2023-12-22T03:24:35;22.17;;;2.88;;
22916;SDS011;11624;53.250;7.456;2023-12-22T03:27:05;30.92;;;4.13;;
22916;SDS011;11624;53.250;7.456;2023-12-22T03:29:35;19.67;;;3.53;;
22916;SDS011;11624;53.250;7.456;2023-12-22T03:32:03;18.90;;;3.33;;
22916;SDS011;11624;53.250;7.456;2023-12-22T03:34:31;22.45;;;4.35;;
22916;SDS011;11624;53.250;7.456;2023-12-22T03:37:00;20.80;;;3.88;;
22916;SDS011;11624;53.250;7.456;2023-12-22T03:39:28;26.25;;;4.07;;
22916;SDS011;11624;53.250;7.456;2023-12-22T03:41:56;19.85;;;3.25;;
22916;SDS011;11624;53.250;7.456;2023-12-22T03:44:26;20.08;;;3.72;;
22916;SDS011;11624;53.250;7.456;2023-12-22T03:46:55;24.17;;;3.17;;
22916;SDS011;11624;53.250;7.456;2023-12-22T03:49:24;21.67;;;3.33;;
22916;SDS011;11624;53.250;7.456;2023-12-22T03:51:52;24.10;;;3.55;;
22916;SDS011;11624;53.250;7.456;2023-12-22T03:54:20;24.02;;;3.13;;
22916;SDS011;11624;53.250;7.456;2023-12-22T03:56:48;17.20;;;3.00;;
22916;SDS011;11624;53.250;7.456;2023-12-22T03:59:16;13.32;;;2.42;;
22916;SDS011;11624;53.250;7.456;2023-12-22T04:01:49;16.85;;;2.15;;
22916;SDS011;11624;53.250;7.456;2023-12-22T04:04:20;13.30;;;1.52;;
22916;SDS011;11624;53.250;7.456;2023-12-22T04:06:49;16.00;;;1.90;;
22916;SDS011;11624;53.250;7.456;2023-12-22T04:09:17;17.85;;;3.42;;
22916;SDS011;11624;53.250;7.456;2023-12-22T04:11:46;15.80;;;2.78;;
22916;SDS011;11624;53.250;7.456;2023-12-22T04:14:14;18.70;;;3.15;;
22916;SDS011;11624;53.250;7.456;2023-12-22T04:16:44;20.80;;;3.67;;
22916;SDS011;11624;53.250;7.456;2023-12-22T04:19:13;18.48;;;3.38;;
22916;SDS011;11624;53.250;7.456;2023-12-22T04:21:43;23.80;;;3.38;;
22916;SDS011;11624;53.250;7.456;2023-12-22T04:24:11;17.38;;;2.70;;
22916;SDS011;11624;53.250;7.456;2023-12-22T04:26:40;9.25;;;2.00;;
22916;SDS011;11624;53.250;7.456;2023-12-22T04:29:08;13.95;;;2.67;;
22916;SDS011;11624;53.250;7.456;2023-12-22T04:31:36;15.57;;;2.22;;
22916;SDS011;11624;53.250;7.456;2023-12-22T04:34:04;20.33;;;2.88;;
22916;SDS011;11624;53.250;7.456;2023-12-22T04:36:33;18.90;;;3.15;;
22916;SDS011;11624;53.250;7.456;2023-12-22T04:39:02;16.00;;;2.50;;
22916;SDS011;11624;53.250;7.456;2023-12-22T04:41:30;15.07;;;3.20;;
22916;SDS011;11624;53.250;7.456;2023-12-22T04:43:59;27.73;;;3.88;;
22916;SDS011;11624;53.250;7.456;2023-12-22T04:46:29;18.23;;;4.32;;
22916;SDS011;11624;53.250;7.456;2023-12-22T04:48:58;20.13;;;3.15;;
22916;SDS011;11624;53.250;7.456;2023-12-22T04:51:26;19.30;;;3.20;;
22916;SDS011;11624;53.250;7.456;2023-12-22T04:53:55;21.77;;;3.33;;
22916;SDS011;11624;53.250;7.456;2023-12-22T04:56:24;23.90;;;3.45;;
22916;SDS011;11624;53.250;7.456;2023-12-22T04:58:52;23.02;;;3.40;;
22916;SDS011;11624;53.250;7.456;2023-12-22T05:01:21;22.60;;;3.72;;
22916;SDS011;11624;53.250;7.456;2023-12-22T05:03:49;25.20;;;3.33;;
22916;SDS011;11624;53.250;7.456;2023-12-22T05:06:17;20.08;;;3.35;;
22916;SDS011;11624;53.250;7.456;2023-12-22T05:08:46;16.45;;;3.10;;
22916;SDS011;11624;53.250;7.456;2023-12-22T05:11:14;22.50;;;2.95;;
22916;SDS011;11624;53.250;7.456;2023-12-22T05:13:43;17.67;;;3.30;;
22916;SDS011;11624;53.250;7.456;2023-12-22T05:16:12;28.80;;;3.80;;
22916;SDS011;11624;53.250;7.456;2023-12-22T05:18:40;24.63;;;4.15;;
22916;SDS011;11624;53.250;7.456;2023-12-22T05:21:11;22.55;;;3.30;;
22916;SDS011;11624;53.250;7.456;2023-12-22T05:23:39;24.35;;;3.28;;
22916;SDS011;11624;53.250;7.456;2023-12-22T05:26:08;18.52;;;3.38;;
22916;SDS011;11624;53.250;7.456;2023-12-22T05:28:36;23.80;;;3.42;;
22916;SDS011;11624;53.250;7.456;2023-12-22T05:31:05;21.48;;;2.95;;
22916;SDS011;11624;53.250;7.456;2023-12-22T05:33:34;29.23;;;4.10;;
22916;SDS011;11624;53.250;7.456;2023-12-22T05:36:02;21.33;;;3.40;;
22916;SDS011;11624;53.250;7.456;2023-12-22T05:38:31;14.52;;;2.97;;
22916;SDS011;11624;53.250;7.456;2023-12-22T05:40:59;16.73;;;3.08;;
22916;SDS011;11624;53.250;7.456;2023-12-22T05:43:27;22.92;;;3.38;;
22916;SDS011;11624;53.250;7.456;2023-12-22T05:45:55;18.58;;;3.50;;
22916;SDS011;11624;53.250;7.456;2023-12-22T05:48:25;16.00;;;3.90;;
22916;SDS011;11624;53.250;7.456;2023-12-22T05:50:55;20.55;;;3.05;;
22916;SDS011;11624;53.250;7.456;2023-12-22T05:53:24;20.23;;;3.70;;
22916;SDS011;11624;53.250;7.456;2023-12-22T05:55:52;21.02;;;3.45;;
22916;SDS011;11624;53.250;7.456;2023-12-22T05:58:20;16.35;;;3.30;;
22916;SDS011;11624;53.250;7.456;2023-12-22T06:00:49;22.50;;;4.00;;
22916;SDS011;11624;53.250;7.456;2023-12-22T06:03:17;23.50;;;3.20;;
22916;SDS011;11624;53.250;7.456;2023-12-22T06:05:46;18.48;;;2.90;;
22916;SDS011;11624;53.250;7.456;2023-12-22T06:08:15;19.98;;;3.95;;
22916;SDS011;11624;53.250;7.456;2023-12-22T06:10:43;23.02;;;3.38;;
22916;SDS011;11624;53.250;7.456;2023-12-22T06:13:11;18.80;;;3.45;;
22916;SDS011;11624;53.250;7.456;2023-12-22T06:15:40;17.33;;;3.40;;
22916;SDS011;11624;53.250;7.456;2023-12-22T06:18:08;25.33;;;4.40;;
22916;SDS011;11624;53.250;7.456;2023-12-22T06:20:37;26.17;;;4.60;;
22916;SDS011;11624;53.250;7.456;2023-12-22T06:23:06;27.27;;;3.67;;
22916;SDS011;11624;53.250;7.456;2023-12-22T06:25:34;22.90;;;3.55;;
22916;SDS011;11624;53.250;7.456;2023-12-22T06:28:03;26.08;;;3.88;;
22916;SDS011;11624;53.250;7.456;2023-12-22T06:30:31;21.65;;;4.10;;
22916;SDS011;11624;53.250;7.456;2023-12-22T06:33:00;19.70;;;3.35;;
22916;SDS011;11624;53.250;7.456;2023-12-22T06:35:28;28.20;;;4.78;;
22916;SDS011;11624;53.250;7.456;2023-12-22T06:37:58;28.95;;;4.40;;
22916;SDS011;11624;53.250;7.456;2023-12-22T06:40:31;23.90;;;3.63;;
22916;SDS011;11624;53.250;7.456;2023-12-22T06:43:00;23.98;;;4.47;;
22916;SDS011;11624;53.250;7.456;2023-12-22T06:45:28;22.23;;;3.60;;
22916;SDS011;11624;53.250;7.456;2023-12-22T06:47:56;18.83;;;2.67;;
22916;SDS011;11624;53.250;7.456;2023-12-22T06:50:25;22.35;;;3.53;;
22916;SDS011;11624;53.250;7.456;2023-12-22T06:52:53;21.48;;;2.88;;
22916;SDS011;11624;53.250;7.456;2023-12-22T06:55:21;25.00;;;3.83;;
22916;SDS011;11624;53.250;7.456;2023-12-22T06:57:51;19.65;;;3.22;;
22916;SDS011;11624;53.250;7.456;2023-12-22T07:00:19;19.63;;;3.53;;
22916;SDS011;11624;53.250;7.456;2023-12-22T07:02:48;18.83;;;3.83;;
22916;SDS011;11624;53.250;7.456;2023-12-22T07:05:32;21.70;;;3.63;;
22916;SDS011;11624;53.250;7.456;2023-12-22T07:08:05;22.27;;;3.70;;
22916;SDS011;11624;53.250;7.456;2023-12-22T07:10:34;22.52;;;3.28;;
22916;SDS011;11624;53.250;7.456;2023-12-22T07:13:04;25.98;;;3.45;;
22916;SDS011;11624;53.250;7.456;2023-12-22T07:15:33;23.10;;;3.22;;
22916;SDS011;11624;53.250;7.456;2023-12-22T07:18:01;21.05;;;3.03;;
22916;SDS011;11624;53.250;7.456;2023-12-22T07:20:30;18.08;;;2.83;;
22916;SDS011;11624;53.250;7.456;2023-12-22T07:22:59;22.98;;;3.28;;
22916;SDS011;11624;53.250;7.456;2023-12-22T07:25:27;19.35;;;3.30;;
22916;SDS011;11624;53.250;7.456;2023-12-22T07:27:56;13.65;;;3.10;;
22916;SDS011;11624;53.250;7.456;2023-12-22T07:30:26;18.83;;;2.95;;
22916;SDS011;11624;53.250;7.456;2023-12-22T07:32:54;23.05;;;4.18;;
22916;SDS011;11624;53.250;7.456;2023-12-22T07:35:22;19.73;;;3.42;;
22916;SDS011;11624;53.250;7.456;2023-12-22T07:37:51;20.95;;;3.28;;
22916;SDS011;11624;53.250;7.456;2023-12-22T07:40:22;27.05;;;3.35;;
22916;SDS011;11624;53.250;7.456;2023-12-22T07:42:50;16.27;;;3.13;;
22916;SDS011;11624;53.250;7.456;2023-12-22T07:45:19;15.40;;;2.15;;
22916;SDS011;11624;53.250;7.456;2023-12-22T07:47:48;12.95;;;2.10;;
22916;SDS011;11624;53.250;7.456;2023-12-22T07:50:17;17.48;;;2.60;;
22916;SDS011;11624;53.250;7.456;2023-12-22T07:52:46;12.73;;;2.20;;
22916;SDS011;11624;53.250;7.456;2023-12-22T07:55:16;10.77;;;1.95;;
22916;SDS011;11624;53.250;7.456;2023-12-22T07:57:45;15.02;;;1.98;;
22916;SDS011;11624;53.250;7.456;2023-12-22T08:00:14;11.45;;;2.22;;
22916;SDS011;11624;53.250;7.456;2023-12-22T08:02:43;10.38;;;1.50;;
22916;SDS011;11624;53.250;7.456;2023-12-22T08:05:12;12.90;;;1.83;;
22916;SDS011;11624;53.250;7.456;2023-12-22T08:07:42;20.45;;;2.55;;
22916;SDS011;11624;53.250;7.456;2023-12-22T08:10:10;21.13;;;3.10;;
22916;SDS011;11624;53.250;7.456;2023-12-22T08:12:38;15.10;;;2.13;;
22916;SDS011;11624;53.250;7.456;2023-12-22T08:15:07;12.40;;;2.00;;
22916;SDS011;11624;53.250;7.456;2023-12-22T08:17:46;16.45;;;2.33;;
22916;SDS011;11624;53.250;7.456;2023-12-22T08:20:17;13.07;;;2.58;;
22916;SDS011;11624;53.250;7.456;2023-12-22T08:22:54;16.92;;;2.50;;
22916;SDS011;11624;53.250;7.456;2023-12-22T08:25:23;11.93;;;2.38;;
22916;SDS011;11624;53.250;7.456;2023-12-22T08:27:51;14.88;;;2.50;;
22916;SDS011;11624;53.250;7.456;2023-12-22T08:30:19;15.98;;;2.45;;
22916;SDS011;11624;53.250;7.456;2023-12-22T08:32:47;17.63;;;2.45;;
22916;SDS011;11624;53.250;7.456;2023-12-22T08:35:17;18.38;;;3.03;;
22916;SDS011;11624;53.250;7.456;2023-12-22T08:37:45;15.48;;;2.88;;
22916;SDS011;11624;53.250;7.456;2023-12-22T08:40:14;21.02;;;3.50;;
22916;SDS011;11624;53.250;7.456;2023-12-22T08:42:43;19.00;;;2.97;;
22916;SDS011;11624;53.250;7.456;2023-12-22T08:45:11;14.48;;;2.47;;
22916;SDS011;11624;53.250;7.456;2023-12-22T08:47:40;12.70;;;2.53;;
22916;SDS011;11624;53.250;7.456;2023-12-22T08:50:08;15.18;;;2.35;;
22916;SDS011;11624;53.250;7.456;2023-12-22T08:52:40;11.07;;;2.40;;
22916;SDS011;11624;53.250;7.456;2023-12-22T08:55:08;16.95;;;2.65;;
22916;SDS011;11624;53.250;7.456;2023-12-22T08:57:36;20.88;;;2.97;;
22916;SDS011;11624;53.250;7.456;2023-12-22T09:00:14;14.35;;;2.67;;
22916;SDS011;11624;53.250;7.456;2023-12-22T09:02:42;15.80;;;2.97;;
22916;SDS011;11624;53.250;7.456;2023-12-22T09:05:11;16.20;;;2.42;;
22916;SDS011;11624;53.250;7.456;2023-12-22T09:07:40;16.77;;;3.05;;
22916;SDS011;11624;53.250;7.456;2023-12-22T09:10:09;13.57;;;2.28;;
22916;SDS011;11624;53.250;7.456;2023-12-22T09:12:39;17.55;;;3.03;;
22916;SDS011;11624;53.250;7.456;2023-12-22T09:15:07;21.52;;;3.17;;
22916;SDS011;11624;53.250;7.456;2023-12-22T09:17:35;18.73;;;2.83;;
22916;SDS011;11624;53.250;7.456;2023-12-22T09:20:04;16.17;;;2.92;;
22916;SDS011;11624;53.250;7.456;2023-12-22T09:22:34;14.63;;;3.13;;
22916;SDS011;11624;53.250;7.456;2023-12-22T09:25:04;18.80;;;2.63;;
22916;SDS011;11624;53.250;7.456;2023-12-22T09:27:35;12.13;;;2.17;;
22916;SDS011;11624;53.250;7.456;2023-12-22T09:30:03;15.75;;;2.63;;
22916;SDS011;11624;53.250;7.456;2023-12-22T09:32:33;17.67;;;2.90;;
22916;SDS011;11624;53.250;7.456;2023-12-22T09:35:02;19.63;;;2.88;;
22916;SDS011;11624;53.250;7.456;2023-12-22T09:37:31;17.27;;;2.95;;
22916;SDS011;11624;53.250;7.456;2023-12-22T09:40:01;17.90;;;3.22;;
22916;SDS011;11624;53.250;7.456;2023-12-22T09:42:33;20.27;;;3.05;;
22916;SDS011;11624;53.250;7.456;2023-12-22T09:45:02;18.27;;;3.05;;
22916;SDS011;11624;53.250;7.456;2023-12-22T09:47:33;23.35;;;3.30;;
22916;SDS011;11624;53.250;7.456;2023-12-22T09:50:03;16.25;;;3.20;;
22916;SDS011;11624;53.250;7.456;2023-12-22T09:52:33;22.27;;;3.42;;
22916;SDS011;11624;53.250;7.456;2023-12-22T09:55:04;17.88;;;2.67;;
22916;SDS011;11624;53.250;7.456;2023-12-22T09:57:37;18.23;;;4.03;;
22916;SDS011;11624;53.250;7.456;2023-12-22T10:00:06;18.27;;;3.10;;
22916;SDS011;11624;53.250;7.456;2023-12-22T10:02:36;25.50;;;4.25;;
22916;SDS011;11624;53.250;7.456;2023-12-22T10:05:04;25.25;;;3.55;;
22916;SDS011;11624;53.250;7.456;2023-12-22T10:07:34;21.85;;;3.65;;
22916;SDS011;11624;53.250;7.456;2023-12-22T10:10:05;19.42;;;3.72;;
22916;SDS011;11624;53.250;7.456;2023-12-22T10:12:36;20.05;;;3.28;;
22916;SDS011;11624;53.250;7.456;2023-12-22T10:15:06;26.15;;;3.70;;
22916;SDS011;11624;53.250;7.456;2023-12-22T10:17:36;22.25;;;3.17;;
22916;SDS011;11624;53.250;7.456;2023-12-22T10:20:05;29.45;;;4.10;;
22916;SDS011;11624;53.250;7.456;2023-12-22T10:22:35;24.63;;;3.42;;
22916;SDS011;11624;53.250;7.456;2023-12-22T10:25:05;24.08;;;3.97;;
22916;SDS011;11624;53.250;7.456;2023-12-22T10:27:35;15.57;;;2.78;;
22916;SDS011;11624;53.250;7.456;2023-12-22T10:30:04;21.00;;;2.60;;
22916;SDS011;11624;53.250;7.456;2023-12-22T10:32:34;18.38;;;3.08;;
22916;SDS011;11624;53.250;7.456;2023-12-22T10:35:07;17.55;;;4.07;;
22916;SDS011;11624;53.250;7.456;2023-12-22T10:37:36;14.43;;;2.70;;
22916;SDS011;11624;53.250;7.456;2023-12-22T10:40:07;19.48;;;2.95;;
22916;SDS011;11624;53.250;7.456;2023-12-22T10:42:37;19.65;;;3.15;;
22916;SDS011;11624;53.250;7.456;2023-12-22T10:45:07;23.15;;;2.65;;
22916;SDS011;11624;53.250;7.456;2023-12-22T10:47:37;20.23;;;3.10;;
22916;SDS011;11624;53.250;7.456;2023-12-22T10:50:06;22.10;;;3.05;;
22916;SDS011;11624;53.250;7.456;2023-12-22T10:52:35;14.10;;;2.65;;
22916;SDS011;11624;53.250;7.456;2023-12-22T10:55:03;18.20;;;2.88;;
22916;SDS011;11624;53.250;7.456;2023-12-22T10:57:33;19.48;;;2.60;;
22916;SDS011;11624;53.250;7.456;2023-12-22T11:00:05;21.15;;;2.83;;
22916;SDS011;11624;53.250;7.456;2023-12-22T11:02:35;14.77;;;3.05;;
22916;SDS011;11624;53.250;7.456;2023-12-22T11:05:09;19.70;;;3.33;;
22916;SDS011;11624;53.250;7.456;2023-12-22T11:07:39;22.38;;;2.97;;
22916;SDS011;11624;53.250;7.456;2023-12-22T11:10:13;16.23;;;2.92;;
22916;SDS011;11624;53.250;7.456;2023-12-22T11:12:47;15.98;;;2.40;;
22916;SDS011;11624;53.250;7.456;2023-12-22T11:15:15;14.40;;;2.55;;
22916;SDS011;11624;53.250;7.456;2023-12-22T11:17:46;22.20;;;2.78;;
22916;SDS011;11624;53.250;7.456;2023-12-22T11:20:18;18.17;;;2.95;;
22916;SDS011;11624;53.250;7.456;2023-12-22T11:22:47;16.45;;;3.42;;
22916;SDS011;11624;53.250;7.456;2023-12-22T11:25:18;18.75;;;2.42;;
22916;SDS011;11624;53.250;7.456;2023-12-22T11:27:48;11.90;;;2.05;;
22916;SDS011;11624;53.250;7.456;2023-12-22T11:30:20;14.05;;;2.35;;
22916;SDS011;11624;53.250;7.456;2023-12-22T11:32:50;23.88;;;2.72;;
22916;SDS011;11624;53.250;7.456;2023-12-22T11:35:21;15.35;;;2.08;;
22916;SDS011;11624;53.250;7.456;2023-12-22T11:37:59;18.02;;;2.35;;
22916;SDS011;11624;53.250;7.456;2023-12-22T11:40:28;15.43;;;2.83;;
22916;SDS011;11624;53.250;7.456;2023-12-22T11:42:58;15.27;;;2.78;;
22916;SDS011;11624;53.250;7.456;2023-12-22T11:45:30;17.10;;;2.25;;
22916;SDS011;11624;53.250;7.456;2023-12-22T11:48:04;17.83;;;3.15;;
22916;SDS011;11624;53.250;7.456;2023-12-22T11:50:34;13.13;;;2.63;;
22916;SDS011;11624;53.250;7.456;2023-12-22T11:53:17;18.95;;;3.25;;
22916;SDS011;11624;53.250;7.456;2023-12-22T11:55:56;19.67;;;3.13;;
22916;SDS011;11624;53.250;7.456;2023-12-22T11:58:37;12.23;;;1.92;;
22916;SDS011;11624;53.250;7.456;2023-12-22T12:01:07;15.77;;;2.40;;
22916;SDS011;11624;53.250;7.456;2023-12-22T12:03:37;12.32;;;2.15;;
22916;SDS011;11624;53.250;7.456;2023-12-22T12:06:14;12.20;;;1.80;;
22916;SDS011;11624;53.250;7.456;2023-12-22T12:08:44;15.07;;;2.80;;
22916;SDS011;11624;53.250;7.456;2023-12-22T12:11:12;11.80;;;1.88;;
22916;SDS011;11624;53.250;7.456;2023-12-22T12:13:43;11.85;;;2.10;;
22916;SDS011;11624;53.250;7.456;2023-12-22T12:16:12;11.65;;;2.28;;
22916;SDS011;11624;53.250;7.456;2023-12-22T12:18:41;13.52;;;2.13;;
22916;SDS011;11624;53.250;7.456;2023-12-22T12:21:10;12.25;;;3.03;;
22916;SDS011;11624;53.250;7.456;2023-12-22T12:23:38;15.93;;;2.63;;
22916;SDS011;11624;53.250;7.456;2023-12-22T12:26:08;17.05;;;2.55;;
22916;SDS011;11624;53.250;7.456;2023-12-22T12:28:40;19.45;;;3.25;;
22916;SDS011;11624;53.250;7.456;2023-12-22T12:31:14;20.83;;;2.83;;
22916;SDS011;11624;53.250;7.456;2023-12-22T12:33:42;22.27;;;2.80;;
22916;SDS011;11624;53.250;7.456;2023-12-22T12:36:12;16.65;;;2.33;;
22916;SDS011;11624;53.250;7.456;2023-12-22T12:38:43;20.85;;;2.90;;
22916;SDS011;11624;53.250;7.456;2023-12-22T12:41:17;18.73;;;2.47;;
22916;SDS011;11624;53.250;7.456;2023-12-22T12:43:58;15.88;;;2.58;;
22916;SDS011;11624;53.250;7.456;2023-12-22T12:46:31;17.95;;;2.50;;
22916;SDS011;11624;53.250;7.456;2023-12-22T12:49:04;13.23;;;1.75;;
22916;SDS011;11624;53.250;7.456;2023-12-22T12:51:36;16.05;;;2.38;;
22916;SDS011;11624;53.250;7.456;2023-12-22T12:54:05;14.98;;;2.13;;
22916;SDS011;11624;53.250;7.456;2023-12-22T12:56:38;15.43;;;3.13;;
22916;SDS011;11624;53.250;7.456;2023-12-22T12:59:09;14.30;;;1.58;;
22916;SDS011;11624;53.250;7.456;2023-12-22T13:01:38;8.25;;;1.42;;
22916;SDS011;11624;53.250;7.456;2023-12-22T13:04:07;16.55;;;2.25;;
22916;SDS011;11624;53.250;7.456;2023-12-22T13:06:35;8.48;;;1.58;;
22916;SDS011;11624;53.250;7.456;2023-12-22T13:09:09;21.75;;;2.55;;
22916;SDS011;11624;53.250;7.456;2023-12-22T13:11:40;14.32;;;2.10;;
22916;SDS011;11624;53.250;7.456;2023-12-22T13:14:10;14.80;;;2.08;;
22916;SDS011;11624;53.250;7.456;2023-12-22T13:16:39;14.88;;;1.88;;
22916;SDS011;11624;53.250;7.456;2023-12-22T13:19:07;11.20;;;1.67;;
22916;SDS011;11624;53.250;7.456;2023-12-22T13:21:36;15.65;;;2.53;;
22916;SDS011;11624;53.250;7.456;2023-12-22T13:24:07;16.70;;;2.53;;
22916;SDS011;11624;53.250;7.456;2023-12-22T13:26:36;12.25;;;2.30;;
22916;SDS011;11624;53.250;7.456;2023-12-22T13:29:05;11.43;;;1.63;;
22916;SDS011;11624;53.250;7.456;2023-12-22T13:31:36;8.13;;;1.55;;
22916;SDS011;11624;53.250;7.456;2023-12-22T13:34:08;14.70;;;1.83;;
22916;SDS011;11624;53.250;7.456;2023-12-22T13:36:36;11.10;;;1.90;;
22916;SDS011;11624;53.250;7.456;2023-12-22T13:39:05;15.23;;;2.65;;
22916;SDS011;11624;53.250;7.456;2023-12-22T13:41:34;8.52;;;1.73;;
22916;SDS011;11624;53.250;7.456;2023-12-22T13:44:06;13.27;;;1.70;;
22916;SDS011;11624;53.250;7.456;2023-12-22T13:46:36;8.77;;;1.75;;
22916;SDS011;11624;53.250;7.456;2023-12-22T13:49:07;6.97;;;1.55;;
22916;SDS011;11624;53.250;7.456;2023-12-22T13:51:40;7.65;;;1.55;;
22916;SDS011;11624;53.250;7.456;2023-12-22T13:54:09;7.78;;;2.33;;
22916;SDS011;11624;53.250;7.456;2023-12-22T13:56:37;6.22;;;1.60;;
22916;SDS011;11624;53.250;7.456;2023-12-22T13:59:08;6.28;;;1.08;;
22916;SDS011;11624;53.250;7.456;2023-12-22T14:01:39;8.75;;;1.33;;
22916;SDS011;11624;53.250;7.456;2023-12-22T14:04:08;10.65;;;1.40;;
22916;SDS011;11624;53.250;7.456;2023-12-22T14:06:37;12.82;;;1.48;;
22916;SDS011;11624;53.250;7.456;2023-12-22T14:09:06;10.85;;;1.50;;
22916;SDS011;11624;53.250;7.456;2023-12-22T14:11:34;13.57;;;1.70;;
22916;SDS011;11624;53.250;7.456;2023-12-22T14:14:09;11.70;;;2.00;;
22916;SDS011;11624;53.250;7.456;2023-12-22T14:16:40;7.88;;;1.75;;
22916;SDS011;11624;53.250;7.456;2023-12-22T14:19:08;13.25;;;1.60;;
22916;SDS011;11624;53.250;7.456;2023-12-22T14:21:36;8.88;;;1.63;;
22916;SDS011;11624;53.250;7.456;2023-12-22T14:24:04;10.07;;;1.40;;
22916;SDS011;11624;53.250;7.456;2023-12-22T14:26:33;6.20;;;1.75;;
22916;SDS011;11624;53.250;7.456;2023-12-22T14:29:20;7.63;;;1.63;;
22916;SDS011;11624;53.250;7.456;2023-12-22T14:31:50;8.68;;;1.20;;
22916;SDS011;11624;53.250;7.456;2023-12-22T14:34:19;8.05;;;1.42;;
22916;SDS011;11624;53.250;7.456;2023-12-22T14:36:47;8.05;;;1.40;;
22916;SDS011;11624;53.250;7.456;2023-12-22T14:39:15;5.47;;;1.35;;
22916;SDS011;11624;53.250;7.456;2023-12-22T14:41:43;7.55;;;1.63;;
22916;SDS011;11624;53.250;7.456;2023-12-22T14:44:13;4.22;;;1.08;;
22916;SDS011;11624;53.250;7.456;2023-12-22T14:46:41;9.63;;;1.42;;
22916;SDS011;11624;53.250;7.456;2023-12-22T14:49:11;8.98;;;1.40;;
22916;SDS011;11624;53.250;7.456;2023-12-22T14:51:39;6.13;;;1.23;;